sensor_id;sensor_type;location;lat;lon;timestamp;P1;durP1;ratioP1;P2;durP2;ratioP2
2750;SDS011;1383;48.362;10.908;2024-01-30T00:00:33;19.95;;;13.85;;
2750;SDS011;1383;48.362;10.908;2024-01-30T00:03:00;16.70;;;13.30;;
2750;SDS011;1383;48.362;10.908;2024-01-30T00:05:26;20.00;;;11.23;;
2750;SDS011;1383;48.362;10.908;2024-01-30T00:07:53;15.35;;;13.85;;
2750;SDS011;1383;48.362;10.908;2024-01-30T00:10:20;17.35;;;12.40;;
2750;SDS011;1383;48.362;10.908;2024-01-30T00:12:47;17.88;;;13.93;;
2750;SDS011;1383;48.362;10.908;2024-01-30T00:15:14;15.98;;;12.48;;
2750;SDS011;1383;48.362;10.908;2024-01-30T00:17:41;17.05;;;13.35;;
2750;SDS011;1383;48.362;10.908;2024-01-30T00:20:08;18.75;;;14.55;;
2750;SDS011;1383;48.362;10.908;2024-01-30T00:22:36;22.10;;;14.07;;
2750;SDS011;1383;48.362;10.908;2024-01-30T00:25:03;18.65;;;14.07;;
2750;SDS011;1383;48.362;10.908;2024-01-30T00:27:30;15.68;;;13.05;;
2750;SDS011;1383;48.362;10.908;2024-01-30T00:29:57;26.90;;;14.60;;
2750;SDS011;1383;48.362;10.908;2024-01-30T00:32:24;16.23;;;13.38;;
2750;SDS011;1383;48.362;10.908;2024-01-30T00:34:51;21.10;;;13.52;;
2750;SDS011;1383;48.362;10.908;2024-01-30T00:37:18;18.50;;;14.25;;
2750;SDS011;1383;48.362;10.908;2024-01-30T00:39:45;15.73;;;12.88;;
2750;SDS011;1383;48.362;10.908;2024-01-30T00:42:12;16.73;;;12.73;;
2750;SDS011;1383;48.362;10.908;2024-01-30T00:44:39;18.60;;;13.15;;
2750;SDS011;1383;48.362;10.908;2024-01-30T00:47:05;15.75;;;12.80;;
2750;SDS011;1383;48.362;10.908;2024-01-30T00:49:32;13.95;;;12.35;;
2750;SDS011;1383;48.362;10.908;2024-01-30T00:52:00;16.80;;;12.60;;
2750;SDS011;1383;48.362;10.908;2024-01-30T00:54:27;14.80;;;12.23;;
2750;SDS011;1383;48.362;10.908;2024-01-30T00:56:54;15.70;;;12.38;;
2750;SDS011;1383;48.362;10.908;2024-01-30T00:59:21;19.55;;;12.55;;
2750;SDS011;1383;48.362;10.908;2024-01-30T01:01:48;20.20;;;13.82;;
2750;SDS011;1383;48.362;10.908;2024-01-30T01:04:15;15.05;;;13.45;;
2750;SDS011;1383;48.362;10.908;2024-01-30T01:06:43;15.63;;;12.75;;
2750;SDS011;1383;48.362;10.908;2024-01-30T01:09:11;15.63;;;12.30;;
2750;SDS011;1383;48.362;10.908;2024-01-30T01:11:38;15.48;;;13.93;;
2750;SDS011;1383;48.362;10.908;2024-01-30T01:14:05;15.15;;;12.10;;
2750;SDS011;1383;48.362;10.908;2024-01-30T01:16:33;14.90;;;12.60;;
2750;SDS011;1383;48.362;10.908;2024-01-30T01:19:00;15.35;;;11.48;;
2750;SDS011;1383;48.362;10.908;2024-01-30T01:21:27;18.13;;;12.48;;
2750;SDS011;1383;48.362;10.908;2024-01-30T01:23:54;14.73;;;12.85;;
2750;SDS011;1383;48.362;10.908;2024-01-30T01:26:22;20.42;;;12.88;;
2750;SDS011;1383;48.362;10.908;2024-01-30T01:28:49;18.45;;;12.98;;
2750;SDS011;1383;48.362;10.908;2024-01-30T01:31:16;19.20;;;12.73;;
2750;SDS011;1383;48.362;10.908;2024-01-30T01:33:44;13.60;;;12.20;;
2750;SDS011;1383;48.362;10.908;2024-01-30T01:36:13;14.77;;;11.70;;
2750;SDS011;1383;48.362;10.908;2024-01-30T01:38:40;16.70;;;12.18;;
2750;SDS011;1383;48.362;10.908;2024-01-30T01:41:07;15.70;;;11.45;;
2750;SDS011;1383;48.362;10.908;2024-01-30T01:43:34;14.00;;;11.82;;
2750;SDS011;1383;48.362;10.908;2024-01-30T01:46:01;21.40;;;13.02;;
2750;SDS011;1383;48.362;10.908;2024-01-30T01:48:28;15.25;;;11.90;;
2750;SDS011;1383;48.362;10.908;2024-01-30T01:50:56;14.00;;;12.57;;
2750;SDS011;1383;48.362;10.908;2024-01-30T01:53:24;15.02;;;12.00;;
2750;SDS011;1383;48.362;10.908;2024-01-30T01:55:51;14.75;;;11.88;;
2750;SDS011;1383;48.362;10.908;2024-01-30T01:58:19;19.13;;;12.05;;
2750;SDS011;1383;48.362;10.908;2024-01-30T02:00:48;14.68;;;10.95;;
2750;SDS011;1383;48.362;10.908;2024-01-30T02:03:17;15.48;;;10.05;;
2750;SDS011;1383;48.362;10.908;2024-01-30T02:05:47;13.82;;;12.15;;
2750;SDS011;1383;48.362;10.908;2024-01-30T02:08:15;16.02;;;12.07;;
2750;SDS011;1383;48.362;10.908;2024-01-30T02:10:42;22.45;;;12.32;;
2750;SDS011;1383;48.362;10.908;2024-01-30T02:13:09;14.07;;;11.27;;
2750;SDS011;1383;48.362;10.908;2024-01-30T02:15:36;14.00;;;11.27;;
2750;SDS011;1383;48.362;10.908;2024-01-30T02:18:03;14.07;;;11.80;;
2750;SDS011;1383;48.362;10.908;2024-01-30T02:20:30;14.95;;;12.57;;
2750;SDS011;1383;48.362;10.908;2024-01-30T02:23:00;12.05;;;10.85;;
2750;SDS011;1383;48.362;10.908;2024-01-30T02:25:32;12.73;;;10.90;;
2750;SDS011;1383;48.362;10.908;2024-01-30T02:28:01;13.93;;;12.02;;
2750;SDS011;1383;48.362;10.908;2024-01-30T02:30:28;12.27;;;10.82;;
2750;SDS011;1383;48.362;10.908;2024-01-30T02:32:55;13.93;;;10.98;;
2750;SDS011;1383;48.362;10.908;2024-01-30T02:35:22;15.18;;;11.35;;
2750;SDS011;1383;48.362;10.908;2024-01-30T02:37:48;14.32;;;11.50;;
2750;SDS011;1383;48.362;10.908;2024-01-30T02:40:15;14.23;;;11.45;;
2750;SDS011;1383;48.362;10.908;2024-01-30T02:42:42;12.00;;;10.80;;
2750;SDS011;1383;48.362;10.908;2024-01-30T02:45:10;14.23;;;10.00;;
2750;SDS011;1383;48.362;10.908;2024-01-30T02:47:38;12.90;;;10.30;;
2750;SDS011;1383;48.362;10.908;2024-01-30T02:50:05;12.48;;;10.50;;
2750;SDS011;1383;48.362;10.908;2024-01-30T02:52:33;15.10;;;11.00;;
2750;SDS011;1383;48.362;10.908;2024-01-30T02:55:00;11.15;;;9.82;;
2750;SDS011;1383;48.362;10.908;2024-01-30T02:57:28;16.50;;;10.02;;
2750;SDS011;1383;48.362;10.908;2024-01-30T02:59:55;14.40;;;10.05;;
2750;SDS011;1383;48.362;10.908;2024-01-30T03:02:22;15.85;;;11.32;;
2750;SDS011;1383;48.362;10.908;2024-01-30T03:04:49;16.60;;;10.52;;
2750;SDS011;1383;48.362;10.908;2024-01-30T03:07:16;12.85;;;10.63;;
2750;SDS011;1383;48.362;10.908;2024-01-30T03:09:43;15.07;;;10.77;;
2750;SDS011;1383;48.362;10.908;2024-01-30T03:12:10;18.08;;;11.70;;
2750;SDS011;1383;48.362;10.908;2024-01-30T03:14:37;11.40;;;9.05;;
2750;SDS011;1383;48.362;10.908;2024-01-30T03:17:04;12.65;;;9.32;;
2750;SDS011;1383;48.362;10.908;2024-01-30T03:19:31;11.77;;;10.10;;
2750;SDS011;1383;48.362;10.908;2024-01-30T03:21:58;11.15;;;10.05;;
2750;SDS011;1383;48.362;10.908;2024-01-30T03:24:25;17.52;;;11.13;;
2750;SDS011;1383;48.362;10.908;2024-01-30T03:26:53;11.23;;;8.43;;
2750;SDS011;1383;48.362;10.908;2024-01-30T03:29:20;15.05;;;10.45;;
2750;SDS011;1383;48.362;10.908;2024-01-30T03:31:47;13.20;;;10.15;;
2750;SDS011;1383;48.362;10.908;2024-01-30T03:34:13;10.52;;;9.52;;
2750;SDS011;1383;48.362;10.908;2024-01-30T03:36:40;12.35;;;11.05;;
2750;SDS011;1383;48.362;10.908;2024-01-30T03:39:07;13.70;;;11.45;;
2750;SDS011;1383;48.362;10.908;2024-01-30T03:41:34;10.40;;;9.15;;
2750;SDS011;1383;48.362;10.908;2024-01-30T03:44:01;10.73;;;9.43;;
2750;SDS011;1383;48.362;10.908;2024-01-30T03:46:28;12.68;;;9.95;;
2750;SDS011;1383;48.362;10.908;2024-01-30T03:48:55;12.27;;;9.70;;
2750;SDS011;1383;48.362;10.908;2024-01-30T03:51:22;10.75;;;9.18;;
2750;SDS011;1383;48.362;10.908;2024-01-30T03:53:49;11.40;;;9.00;;
2750;SDS011;1383;48.362;10.908;2024-01-30T03:56:15;11.50;;;8.23;;
2750;SDS011;1383;48.362;10.908;2024-01-30T03:58:42;13.82;;;9.65;;
2750;SDS011;1383;48.362;10.908;2024-01-30T04:01:13;9.50;;;8.40;;
2750;SDS011;1383;48.362;10.908;2024-01-30T04:03:41;11.90;;;9.18;;
2750;SDS011;1383;48.362;10.908;2024-01-30T04:06:10;15.23;;;9.23;;
2750;SDS011;1383;48.362;10.908;2024-01-30T04:08:37;11.05;;;9.02;;
2750;SDS011;1383;48.362;10.908;2024-01-30T04:11:04;10.40;;;9.32;;
2750;SDS011;1383;48.362;10.908;2024-01-30T04:13:32;9.73;;;8.73;;
2750;SDS011;1383;48.362;10.908;2024-01-30T04:16:00;13.80;;;8.90;;
2750;SDS011;1383;48.362;10.908;2024-01-30T04:18:30;10.43;;;8.80;;
2750;SDS011;1383;48.362;10.908;2024-01-30T04:20:57;9.85;;;7.95;;
2750;SDS011;1383;48.362;10.908;2024-01-30T04:23:24;14.05;;;8.52;;
2750;SDS011;1383;48.362;10.908;2024-01-30T04:25:50;9.75;;;7.93;;
2750;SDS011;1383;48.362;10.908;2024-01-30T04:28:18;12.02;;;7.20;;
2750;SDS011;1383;48.362;10.908;2024-01-30T04:30:45;10.80;;;8.13;;
2750;SDS011;1383;48.362;10.908;2024-01-30T04:33:12;12.25;;;8.48;;
2750;SDS011;1383;48.362;10.908;2024-01-30T04:35:39;11.52;;;8.00;;
2750;SDS011;1383;48.362;10.908;2024-01-30T04:38:05;13.98;;;8.38;;
2750;SDS011;1383;48.362;10.908;2024-01-30T04:40:32;18.27;;;9.20;;
2750;SDS011;1383;48.362;10.908;2024-01-30T04:42:59;11.27;;;8.32;;
2750;SDS011;1383;48.362;10.908;2024-01-30T04:45:26;11.45;;;7.90;;
2750;SDS011;1383;48.362;10.908;2024-01-30T04:47:53;10.27;;;8.60;;
2750;SDS011;1383;48.362;10.908;2024-01-30T04:50:20;9.70;;;6.93;;
2750;SDS011;1383;48.362;10.908;2024-01-30T04:52:47;9.55;;;8.60;;
2750;SDS011;1383;48.362;10.908;2024-01-30T04:55:14;10.63;;;7.47;;
2750;SDS011;1383;48.362;10.908;2024-01-30T04:57:41;11.32;;;8.60;;
2750;SDS011;1383;48.362;10.908;2024-01-30T05:00:08;12.23;;;8.30;;
2750;SDS011;1383;48.362;10.908;2024-01-30T05:02:35;10.80;;;7.90;;
2750;SDS011;1383;48.362;10.908;2024-01-30T05:05:02;10.45;;;9.20;;
2750;SDS011;1383;48.362;10.908;2024-01-30T05:07:29;11.57;;;8.48;;
2750;SDS011;1383;48.362;10.908;2024-01-30T05:09:56;16.98;;;9.20;;
2750;SDS011;1383;48.362;10.908;2024-01-30T05:12:25;10.77;;;8.40;;
2750;SDS011;1383;48.362;10.908;2024-01-30T05:14:53;9.30;;;8.13;;
2750;SDS011;1383;48.362;10.908;2024-01-30T05:17:19;9.07;;;7.63;;
2750;SDS011;1383;48.362;10.908;2024-01-30T05:19:46;12.23;;;7.60;;
2750;SDS011;1383;48.362;10.908;2024-01-30T05:22:14;12.80;;;8.05;;
2750;SDS011;1383;48.362;10.908;2024-01-30T05:24:43;10.63;;;8.15;;
2750;SDS011;1383;48.362;10.908;2024-01-30T05:27:10;10.07;;;8.15;;
2750;SDS011;1383;48.362;10.908;2024-01-30T05:29:37;10.23;;;8.55;;
2750;SDS011;1383;48.362;10.908;2024-01-30T05:32:04;11.82;;;8.57;;
2750;SDS011;1383;48.362;10.908;2024-01-30T05:34:32;10.85;;;8.18;;
2750;SDS011;1383;48.362;10.908;2024-01-30T05:36:59;10.20;;;7.07;;
2750;SDS011;1383;48.362;10.908;2024-01-30T05:39:26;13.07;;;9.32;;
2750;SDS011;1383;48.362;10.908;2024-01-30T05:41:53;13.90;;;8.63;;
2750;SDS011;1383;48.362;10.908;2024-01-30T05:44:19;9.30;;;7.90;;
2750;SDS011;1383;48.362;10.908;2024-01-30T05:46:46;15.80;;;8.25;;
2750;SDS011;1383;48.362;10.908;2024-01-30T05:49:13;8.10;;;7.30;;
2750;SDS011;1383;48.362;10.908;2024-01-30T05:51:40;10.02;;;6.90;;
2750;SDS011;1383;48.362;10.908;2024-01-30T05:54:07;12.50;;;7.63;;
2750;SDS011;1383;48.362;10.908;2024-01-30T05:56:34;7.78;;;6.97;;
2750;SDS011;1383;48.362;10.908;2024-01-30T05:59:01;13.90;;;7.93;;
2750;SDS011;1383;48.362;10.908;2024-01-30T06:01:28;11.85;;;6.88;;
2750;SDS011;1383;48.362;10.908;2024-01-30T06:03:55;14.98;;;8.32;;
2750;SDS011;1383;48.362;10.908;2024-01-30T06:06:22;10.05;;;7.65;;
2750;SDS011;1383;48.362;10.908;2024-01-30T06:08:49;9.27;;;8.35;;
2750;SDS011;1383;48.362;10.908;2024-01-30T06:11:16;9.40;;;7.90;;
2750;SDS011;1383;48.362;10.908;2024-01-30T06:13:43;12.15;;;8.82;;
2750;SDS011;1383;48.362;10.908;2024-01-30T06:16:10;9.60;;;7.97;;
2750;SDS011;1383;48.362;10.908;2024-01-30T06:18:38;8.85;;;7.95;;
2750;SDS011;1383;48.362;10.908;2024-01-30T06:21:05;11.23;;;6.80;;
2750;SDS011;1383;48.362;10.908;2024-01-30T06:23:33;12.32;;;8.18;;
2750;SDS011;1383;48.362;10.908;2024-01-30T06:26:00;11.13;;;8.50;;
2750;SDS011;1383;48.362;10.908;2024-01-30T06:28:27;10.20;;;8.02;;
2750;SDS011;1383;48.362;10.908;2024-01-30T06:30:54;9.00;;;7.70;;
2750;SDS011;1383;48.362;10.908;2024-01-30T06:33:21;9.48;;;7.63;;
2750;SDS011;1383;48.362;10.908;2024-01-30T06:35:48;8.68;;;7.78;;
2750;SDS011;1383;48.362;10.908;2024-01-30T06:38:15;9.23;;;7.95;;
2750;SDS011;1383;48.362;10.908;2024-01-30T06:40:42;8.60;;;6.75;;
2750;SDS011;1383;48.362;10.908;2024-01-30T06:43:09;10.05;;;6.57;;
2750;SDS011;1383;48.362;10.908;2024-01-30T06:45:35;9.75;;;7.88;;
2750;SDS011;1383;48.362;10.908;2024-01-30T06:48:02;11.15;;;8.10;;
2750;SDS011;1383;48.362;10.908;2024-01-30T06:50:29;9.43;;;7.85;;
2750;SDS011;1383;48.362;10.908;2024-01-30T06:52:56;10.52;;;7.95;;
2750;SDS011;1383;48.362;10.908;2024-01-30T06:55:23;9.25;;;6.45;;
2750;SDS011;1383;48.362;10.908;2024-01-30T06:57:50;8.18;;;7.35;;
2750;SDS011;1383;48.362;10.908;2024-01-30T07:00:17;11.23;;;8.05;;
2750;SDS011;1383;48.362;10.908;2024-01-30T07:02:46;11.45;;;8.68;;
2750;SDS011;1383;48.362;10.908;2024-01-30T07:05:12;7.78;;;6.38;;
2750;SDS011;1383;48.362;10.908;2024-01-30T07:07:40;11.07;;;7.65;;
2750;SDS011;1383;48.362;10.908;2024-01-30T07:10:07;11.20;;;8.10;;
2750;SDS011;1383;48.362;10.908;2024-01-30T07:12:35;13.77;;;9.52;;
2750;SDS011;1383;48.362;10.908;2024-01-30T07:15:02;12.90;;;8.00;;
2750;SDS011;1383;48.362;10.908;2024-01-30T07:17:29;11.93;;;8.90;;
2750;SDS011;1383;48.362;10.908;2024-01-30T07:19:56;10.95;;;6.10;;
2750;SDS011;1383;48.362;10.908;2024-01-30T07:22:23;9.93;;;8.32;;
2750;SDS011;1383;48.362;10.908;2024-01-30T07:24:50;7.68;;;6.97;;
2750;SDS011;1383;48.362;10.908;2024-01-30T07:27:18;14.65;;;8.27;;
2750;SDS011;1383;48.362;10.908;2024-01-30T07:29:45;8.18;;;7.20;;
2750;SDS011;1383;48.362;10.908;2024-01-30T07:32:12;8.70;;;6.50;;
2750;SDS011;1383;48.362;10.908;2024-01-30T07:34:39;10.90;;;8.00;;
2750;SDS011;1383;48.362;10.908;2024-01-30T07:37:18;11.50;;;7.90;;
2750;SDS011;1383;48.362;10.908;2024-01-30T07:39:46;11.20;;;7.72;;
2750;SDS011;1383;48.362;10.908;2024-01-30T07:42:13;9.40;;;7.38;;
2750;SDS011;1383;48.362;10.908;2024-01-30T07:44:40;7.75;;;6.45;;
2750;SDS011;1383;48.362;10.908;2024-01-30T07:47:07;14.73;;;8.43;;
2750;SDS011;1383;48.362;10.908;2024-01-30T07:49:34;8.07;;;7.30;;
2750;SDS011;1383;48.362;10.908;2024-01-30T07:52:01;10.77;;;7.40;;
2750;SDS011;1383;48.362;10.908;2024-01-30T07:54:28;14.15;;;6.97;;
2750;SDS011;1383;48.362;10.908;2024-01-30T07:56:55;7.07;;;6.25;;
2750;SDS011;1383;48.362;10.908;2024-01-30T07:59:22;8.05;;;7.25;;
2750;SDS011;1383;48.362;10.908;2024-01-30T08:01:51;8.75;;;7.55;;
2750;SDS011;1383;48.362;10.908;2024-01-30T08:04:19;9.70;;;8.18;;
2750;SDS011;1383;48.362;10.908;2024-01-30T08:06:46;8.85;;;7.35;;
2750;SDS011;1383;48.362;10.908;2024-01-30T08:09:13;12.88;;;9.45;;
2750;SDS011;1383;48.362;10.908;2024-01-30T08:11:40;11.52;;;7.82;;
2750;SDS011;1383;48.362;10.908;2024-01-30T08:14:07;14.15;;;7.10;;
2750;SDS011;1383;48.362;10.908;2024-01-30T08:16:34;10.00;;;6.03;;
2750;SDS011;1383;48.362;10.908;2024-01-30T08:19:01;8.77;;;7.22;;
2750;SDS011;1383;48.362;10.908;2024-01-30T08:21:29;9.20;;;7.03;;
2750;SDS011;1383;48.362;10.908;2024-01-30T08:23:56;8.80;;;6.78;;
2750;SDS011;1383;48.362;10.908;2024-01-30T08:26:23;9.30;;;6.30;;
2750;SDS011;1383;48.362;10.908;2024-01-30T08:28:50;12.77;;;7.32;;
2750;SDS011;1383;48.362;10.908;2024-01-30T08:31:18;12.02;;;6.05;;
2750;SDS011;1383;48.362;10.908;2024-01-30T08:33:45;7.65;;;6.63;;
2750;SDS011;1383;48.362;10.908;2024-01-30T08:36:16;7.75;;;5.38;;
2750;SDS011;1383;48.362;10.908;2024-01-30T08:38:43;9.68;;;6.45;;
2750;SDS011;1383;48.362;10.908;2024-01-30T08:41:10;8.60;;;5.70;;
2750;SDS011;1383;48.362;10.908;2024-01-30T08:43:37;7.33;;;6.07;;
2750;SDS011;1383;48.362;10.908;2024-01-30T08:46:04;6.95;;;5.95;;
2750;SDS011;1383;48.362;10.908;2024-01-30T08:48:31;6.67;;;5.63;;
2750;SDS011;1383;48.362;10.908;2024-01-30T08:50:58;7.60;;;6.10;;
2750;SDS011;1383;48.362;10.908;2024-01-30T08:53:25;6.53;;;5.83;;
2750;SDS011;1383;48.362;10.908;2024-01-30T08:55:52;7.00;;;6.28;;
2750;SDS011;1383;48.362;10.908;2024-01-30T08:58:19;6.33;;;5.60;;
2750;SDS011;1383;48.362;10.908;2024-01-30T09:00:46;7.85;;;5.07;;
2750;SDS011;1383;48.362;10.908;2024-01-30T09:03:13;7.60;;;5.63;;
2750;SDS011;1383;48.362;10.908;2024-01-30T09:05:40;6.40;;;5.30;;
2750;SDS011;1383;48.362;10.908;2024-01-30T09:08:07;7.38;;;6.13;;
2750;SDS011;1383;48.362;10.908;2024-01-30T09:10:34;6.20;;;5.07;;
2750;SDS011;1383;48.362;10.908;2024-01-30T09:13:01;6.30;;;5.60;;
2750;SDS011;1383;48.362;10.908;2024-01-30T09:15:28;9.40;;;6.10;;
2750;SDS011;1383;48.362;10.908;2024-01-30T09:17:55;6.65;;;5.53;;
2750;SDS011;1383;48.362;10.908;2024-01-30T09:20:22;7.20;;;5.10;;
2750;SDS011;1383;48.362;10.908;2024-01-30T09:22:49;5.78;;;5.18;;
2750;SDS011;1383;48.362;10.908;2024-01-30T09:25:16;6.55;;;5.05;;
2750;SDS011;1383;48.362;10.908;2024-01-30T09:27:46;4.85;;;4.25;;
2750;SDS011;1383;48.362;10.908;2024-01-30T09:30:13;6.97;;;5.50;;
2750;SDS011;1383;48.362;10.908;2024-01-30T09:32:41;6.20;;;4.87;;
2750;SDS011;1383;48.362;10.908;2024-01-30T09:35:09;8.90;;;4.77;;
2750;SDS011;1383;48.362;10.908;2024-01-30T09:37:36;10.93;;;5.70;;
2750;SDS011;1383;48.362;10.908;2024-01-30T09:40:04;6.17;;;4.43;;
2750;SDS011;1383;48.362;10.908;2024-01-30T09:42:34;6.45;;;5.20;;
2750;SDS011;1383;48.362;10.908;2024-01-30T09:45:03;8.73;;;5.90;;
2750;SDS011;1383;48.362;10.908;2024-01-30T09:47:32;10.67;;;5.87;;
2750;SDS011;1383;48.362;10.908;2024-01-30T09:50:04;6.67;;;4.77;;
2750;SDS011;1383;48.362;10.908;2024-01-30T09:52:32;6.70;;;5.10;;
2750;SDS011;1383;48.362;10.908;2024-01-30T09:54:59;6.23;;;4.17;;
2750;SDS011;1383;48.362;10.908;2024-01-30T09:57:27;4.40;;;3.27;;
2750;SDS011;1383;48.362;10.908;2024-01-30T09:59:57;4.93;;;3.37;;
2750;SDS011;1383;48.362;10.908;2024-01-30T10:02:25;5.03;;;3.57;;
2750;SDS011;1383;48.362;10.908;2024-01-30T10:04:52;4.23;;;3.73;;
2750;SDS011;1383;48.362;10.908;2024-01-30T10:07:19;4.70;;;3.40;;
2750;SDS011;1383;48.362;10.908;2024-01-30T10:09:46;4.03;;;3.60;;
2750;SDS011;1383;48.362;10.908;2024-01-30T10:12:13;4.43;;;3.30;;
2750;SDS011;1383;48.362;10.908;2024-01-30T10:14:40;5.03;;;3.57;;
2750;SDS011;1383;48.362;10.908;2024-01-30T10:17:08;4.33;;;3.70;;
2750;SDS011;1383;48.362;10.908;2024-01-30T10:19:52;10.60;;;3.80;;
2750;SDS011;1383;48.362;10.908;2024-01-30T10:22:20;6.43;;;3.90;;
2750;SDS011;1383;48.362;10.908;2024-01-30T10:24:48;6.90;;;3.87;;
2750;SDS011;1383;48.362;10.908;2024-01-30T10:27:15;5.63;;;4.20;;
2750;SDS011;1383;48.362;10.908;2024-01-30T10:29:42;4.87;;;3.50;;
2750;SDS011;1383;48.362;10.908;2024-01-30T10:32:09;4.57;;;3.57;;
2750;SDS011;1383;48.362;10.908;2024-01-30T10:34:36;5.20;;;4.70;;
2750;SDS011;1383;48.362;10.908;2024-01-30T10:39:36;6.10;;;4.60;;
2750;SDS011;1383;48.362;10.908;2024-01-30T10:42:11;4.53;;;3.80;;
2750;SDS011;1383;48.362;10.908;2024-01-30T10:47:35;8.57;;;6.23;;
2750;SDS011;1383;48.362;10.908;2024-01-30T10:50:03;7.30;;;5.07;;
2750;SDS011;1383;48.362;10.908;2024-01-30T10:52:31;11.70;;;5.70;;
2750;SDS011;1383;48.362;10.908;2024-01-30T10:54:59;9.53;;;4.80;;
2750;SDS011;1383;48.362;10.908;2024-01-30T10:57:27;4.67;;;4.27;;
2750;SDS011;1383;48.362;10.908;2024-01-30T10:59:58;5.13;;;4.70;;
2750;SDS011;1383;48.362;10.908;2024-01-30T11:02:27;6.33;;;5.20;;
2750;SDS011;1383;48.362;10.908;2024-01-30T11:04:57;6.03;;;4.40;;
2750;SDS011;1383;48.362;10.908;2024-01-30T11:07:28;5.90;;;4.20;;
2750;SDS011;1383;48.362;10.908;2024-01-30T11:12:27;8.00;;;5.20;;
2750;SDS011;1383;48.362;10.908;2024-01-30T11:15:05;6.77;;;4.70;;
2750;SDS011;1383;48.362;10.908;2024-01-30T11:20:16;8.33;;;4.87;;
2750;SDS011;1383;48.362;10.908;2024-01-30T11:22:47;5.80;;;4.37;;
2750;SDS011;1383;48.362;10.908;2024-01-30T11:25:46;6.00;;;3.73;;
2750;SDS011;1383;48.362;10.908;2024-01-30T11:28:14;4.83;;;3.87;;
2750;SDS011;1383;48.362;10.908;2024-01-30T11:30:42;11.80;;;4.30;;
2750;SDS011;1383;48.362;10.908;2024-01-30T11:33:11;10.77;;;4.57;;
2750;SDS011;1383;48.362;10.908;2024-01-30T11:35:42;6.17;;;4.73;;
2750;SDS011;1383;48.362;10.908;2024-01-30T11:38:14;5.10;;;3.63;;
2750;SDS011;1383;48.362;10.908;2024-01-30T11:40:44;4.10;;;3.70;;
2750;SDS011;1383;48.362;10.908;2024-01-30T11:43:11;3.37;;;3.10;;
2750;SDS011;1383;48.362;10.908;2024-01-30T11:45:39;8.60;;;5.90;;
2750;SDS011;1383;48.362;10.908;2024-01-30T11:48:07;4.50;;;3.73;;
2750;SDS011;1383;48.362;10.908;2024-01-30T11:50:41;4.23;;;3.53;;
2750;SDS011;1383;48.362;10.908;2024-01-30T11:53:08;6.30;;;4.20;;
2750;SDS011;1383;48.362;10.908;2024-01-30T11:58:50;5.90;;;3.70;;
2750;SDS011;1383;48.362;10.908;2024-01-30T12:01:18;3.20;;;2.90;;
2750;SDS011;1383;48.362;10.908;2024-01-30T12:03:51;3.67;;;3.37;;
2750;SDS011;1383;48.362;10.908;2024-01-30T12:06:18;7.10;;;3.50;;
2750;SDS011;1383;48.362;10.908;2024-01-30T12:08:57;9.13;;;4.20;;
2750;SDS011;1383;48.362;10.908;2024-01-30T12:11:26;8.77;;;4.20;;
2750;SDS011;1383;48.362;10.908;2024-01-30T12:13:56;9.73;;;4.43;;
2750;SDS011;1383;48.362;10.908;2024-01-30T12:16:27;7.53;;;6.70;;
2750;SDS011;1383;48.362;10.908;2024-01-30T12:19:00;5.60;;;3.53;;
2750;SDS011;1383;48.362;10.908;2024-01-30T12:21:30;6.80;;;4.10;;
2750;SDS011;1383;48.362;10.908;2024-01-30T12:23:57;3.30;;;3.00;;
2750;SDS011;1383;48.362;10.908;2024-01-30T12:26:24;8.00;;;5.77;;
2750;SDS011;1383;48.362;10.908;2024-01-30T12:28:54;5.47;;;3.63;;
2750;SDS011;1383;48.362;10.908;2024-01-30T12:31:28;6.00;;;3.83;;
2750;SDS011;1383;48.362;10.908;2024-01-30T12:33:55;7.87;;;4.47;;
2750;SDS011;1383;48.362;10.908;2024-01-30T12:36:24;5.70;;;3.40;;
2750;SDS011;1383;48.362;10.908;2024-01-30T12:38:52;5.43;;;3.57;;
2750;SDS011;1383;48.362;10.908;2024-01-30T12:41:19;9.70;;;6.73;;
2750;SDS011;1383;48.362;10.908;2024-01-30T14:05:21;7.20;;;5.53;;
2750;SDS011;1383;48.362;10.908;2024-01-30T14:07:49;6.53;;;4.87;;
2750;SDS011;1383;48.362;10.908;2024-01-30T14:10:16;5.77;;;5.20;;
2750;SDS011;1383;48.362;10.908;2024-01-30T14:12:43;7.47;;;5.03;;
2750;SDS011;1383;48.362;10.908;2024-01-30T14:15:11;9.07;;;4.63;;
2750;SDS011;1383;48.362;10.908;2024-01-30T14:17:53;6.83;;;6.03;;
2750;SDS011;1383;48.362;10.908;2024-01-30T14:20:21;6.37;;;5.47;;
2750;SDS011;1383;48.362;10.908;2024-01-30T14:22:48;6.67;;;5.83;;
2750;SDS011;1383;48.362;10.908;2024-01-30T14:25:15;6.67;;;4.70;;
2750;SDS011;1383;48.362;10.908;2024-01-30T14:27:43;6.27;;;5.20;;
2750;SDS011;1383;48.362;10.908;2024-01-30T14:30:13;7.50;;;5.23;;
2750;SDS011;1383;48.362;10.908;2024-01-30T14:32:50;7.00;;;5.60;;
2750;SDS011;1383;48.362;10.908;2024-01-30T14:35:34;5.90;;;4.27;;
2750;SDS011;1383;48.362;10.908;2024-01-30T14:38:01;5.47;;;4.27;;
2750;SDS011;1383;48.362;10.908;2024-01-30T14:40:30;5.20;;;4.70;;
2750;SDS011;1383;48.362;10.908;2024-01-30T14:42:57;6.50;;;4.60;;
2750;SDS011;1383;48.362;10.908;2024-01-30T14:45:25;4.40;;;3.50;;
2750;SDS011;1383;48.362;10.908;2024-01-30T14:47:53;5.03;;;3.57;;
2750;SDS011;1383;48.362;10.908;2024-01-30T14:50:22;7.03;;;4.17;;
2750;SDS011;1383;48.362;10.908;2024-01-30T14:52:49;7.43;;;5.77;;
2750;SDS011;1383;48.362;10.908;2024-01-30T14:55:16;6.00;;;4.20;;
2750;SDS011;1383;48.362;10.908;2024-01-30T14:57:44;3.77;;;3.37;;
2750;SDS011;1383;48.362;10.908;2024-01-30T15:00:12;5.00;;;4.20;;
2750;SDS011;1383;48.362;10.908;2024-01-30T15:02:41;6.50;;;3.80;;
2750;SDS011;1383;48.362;10.908;2024-01-30T15:05:08;7.17;;;3.97;;
2750;SDS011;1383;48.362;10.908;2024-01-30T15:07:37;5.73;;;4.40;;
2750;SDS011;1383;48.362;10.908;2024-01-30T15:10:06;6.20;;;5.23;;
2750;SDS011;1383;48.362;10.908;2024-01-30T15:58:32;6.63;;;5.10;;
2750;SDS011;1383;48.362;10.908;2024-01-30T16:00:59;5.70;;;4.50;;
2750;SDS011;1383;48.362;10.908;2024-01-30T16:03:36;5.77;;;4.20;;
2750;SDS011;1383;48.362;10.908;2024-01-30T16:06:37;8.07;;;5.20;;
2750;SDS011;1383;48.362;10.908;2024-01-30T17:44:16;11.50;;;9.67;;
2750;SDS011;1383;48.362;10.908;2024-01-30T20:56:40;14.98;;;9.77;;
2750;SDS011;1383;48.362;10.908;2024-01-30T20:59:11;14.10;;;9.90;;
2750;SDS011;1383;48.362;10.908;2024-01-30T21:01:38;12.98;;;10.20;;
2750;SDS011;1383;48.362;10.908;2024-01-30T21:04:05;14.40;;;10.68;;
2750;SDS011;1383;48.362;10.908;2024-01-30T21:06:33;17.15;;;10.05;;
2750;SDS011;1383;48.362;10.908;2024-01-30T21:09:00;18.75;;;11.75;;
2750;SDS011;1383;48.362;10.908;2024-01-30T21:11:27;15.80;;;11.65;;
2750;SDS011;1383;48.362;10.908;2024-01-30T21:13:54;14.30;;;10.90;;
2750;SDS011;1383;48.362;10.908;2024-01-30T21:16:26;16.08;;;12.50;;
2750;SDS011;1383;48.362;10.908;2024-01-30T21:18:56;13.18;;;10.18;;
2750;SDS011;1383;48.362;10.908;2024-01-30T21:21:23;13.15;;;10.90;;
2750;SDS011;1383;48.362;10.908;2024-01-30T21:23:51;14.02;;;11.88;;
2750;SDS011;1383;48.362;10.908;2024-01-30T21:26:18;13.00;;;11.13;;
2750;SDS011;1383;48.362;10.908;2024-01-30T21:28:45;14.25;;;11.32;;
2750;SDS011;1383;48.362;10.908;2024-01-30T21:31:12;16.65;;;10.73;;
2750;SDS011;1383;48.362;10.908;2024-01-30T21:33:42;11.43;;;10.20;;
2750;SDS011;1383;48.362;10.908;2024-01-30T21:36:10;11.93;;;10.30;;
2750;SDS011;1383;48.362;10.908;2024-01-30T21:38:37;15.90;;;10.05;;
2750;SDS011;1383;48.362;10.908;2024-01-30T21:41:04;10.35;;;9.25;;
2750;SDS011;1383;48.362;10.908;2024-01-30T21:43:31;13.00;;;11.63;;
2750;SDS011;1383;48.362;10.908;2024-01-30T21:45:59;13.73;;;10.50;;
2750;SDS011;1383;48.362;10.908;2024-01-30T21:48:25;14.90;;;11.00;;
2750;SDS011;1383;48.362;10.908;2024-01-30T21:50:52;12.75;;;10.13;;
2750;SDS011;1383;48.362;10.908;2024-01-30T21:53:19;10.93;;;9.73;;
2750;SDS011;1383;48.362;10.908;2024-01-30T21:55:46;14.80;;;12.38;;
2750;SDS011;1383;48.362;10.908;2024-01-30T21:58:13;15.32;;;12.45;;
2750;SDS011;1383;48.362;10.908;2024-01-30T22:00:40;18.30;;;12.55;;